createdAt,value
2018-04-17T00:00:10.990Z,8.00
2018-04-17T00:01:10.973Z,8.00
2018-04-17T00:02:10.956Z,8.00
2018-04-17T00:03:10.936Z,8.00
2018-04-17T00:04:10.929Z,8.00
2018-04-17T00:05:10.901Z,8.00
2018-04-17T00:06:10.884Z,8.00
2018-04-17T00:07:10.871Z,8.00
2018-04-17T00:08:10.849Z,8.00
2018-04-17T00:09:10.831Z,8.00
2018-04-17T00:10:10.825Z,8.00
2018-04-17T00:11:10.803Z,8.00
2018-04-17T00:12:10.783Z,8.00
2018-04-17T00:13:10.768Z,8.00
2018-04-17T00:14:10.761Z,8.00
2018-04-17T00:15:10.741Z,8.00
2018-04-17T00:16:10.716Z,8.00
2018-04-17T00:17:10.697Z,8.00
2018-04-17T00:18:10.735Z,8.00
2018-04-17T00:19:10.662Z,8.00
2018-04-17T00:20:10.643Z,8.00
2018-04-17T00:21:10.626Z,8.00
2018-04-17T00:22:10.610Z,8.00
2018-04-17T00:23:10.592Z,8.00
2018-04-17T00:24:10.576Z,8.00
2018-04-17T00:25:10.555Z,8.00
2018-04-17T00:26:10.539Z,8.00
2018-04-17T00:27:10.526Z,8.00
2018-04-17T00:28:10.505Z,8.00
2018-04-17T00:29:10.487Z,8.00
2018-04-17T00:30:10.470Z,8.00
2018-04-17T00:31:10.577Z,8.00
2018-04-17T00:32:10.435Z,8.00
2018-04-17T00:33:10.421Z,8.00
2018-04-17T00:34:10.419Z,8.00
2018-04-17T00:35:10.383Z,8.00
2018-04-17T00:36:10.365Z,8.00
2018-04-17T00:37:10.350Z,8.00
2018-04-17T00:38:10.334Z,8.00
2018-04-17T00:39:10.312Z,8.00
2018-04-17T00:40:10.298Z,8.00
2018-04-17T00:41:10.283Z,8.00
2018-04-17T00:42:10.265Z,8.00
2018-04-17T00:43:10.243Z,8.00
2018-04-17T00:44:10.226Z,8.00
2018-04-17T00:45:10.213Z,8.00
2018-04-17T00:46:10.203Z,8.00
2018-04-17T00:47:10.176Z,8.00
2018-04-17T00:48:10.207Z,8.00
2018-04-17T00:49:10.145Z,8.00
2018-04-17T00:50:10.128Z,8.00
2018-04-17T00:51:10.106Z,8.00
2018-04-17T00:52:10.094Z,8.00
2018-04-17T00:53:10.136Z,8.00
2018-04-17T00:54:10.057Z,8.00
2018-04-17T00:55:10.036Z,8.00
2018-04-17T00:56:10.024Z,8.00
2018-04-17T00:57:10.005Z,8.00
2018-04-17T00:58:09.985Z,8.00
2018-04-17T00:59:09.967Z,8.00
2018-04-17T01:00:09.959Z,8.00
2018-04-17T01:01:10.037Z,8.00
2018-04-17T01:02:09.916Z,8.00
2018-04-17T01:03:09.909Z,8.00
2018-04-17T01:04:09.883Z,8.00
2018-04-17T01:05:09.864Z,8.00
2018-04-17T01:06:09.855Z,8.00
2018-04-17T01:07:09.834Z,8.00
2018-04-17T01:08:09.809Z,8.00
2018-04-17T01:09:09.793Z,8.00
2018-04-17T01:10:09.782Z,8.00
2018-04-17T01:11:09.760Z,8.00
2018-04-17T01:12:09.739Z,8.00
2018-04-17T01:13:09.718Z,8.00
2018-04-17T01:14:09.704Z,8.00
2018-04-17T01:15:09.687Z,8.00
2018-04-17T01:16:09.669Z,8.00
2018-04-17T01:17:09.652Z,8.00
2018-04-17T01:18:09.633Z,8.00
2018-04-17T01:19:09.616Z,8.00
2018-04-17T01:20:09.597Z,8.00
2018-04-17T01:21:09.576Z,8.00
2018-04-17T01:22:09.561Z,8.00
2018-04-17T01:23:09.543Z,8.00
2018-04-17T01:24:09.524Z,8.00
2018-04-17T01:25:09.507Z,8.00
2018-04-17T01:26:09.496Z,8.00
2018-04-17T01:27:09.471Z,8.00
2018-04-17T01:28:09.453Z,8.00
2018-04-17T01:29:09.442Z,8.00
2018-04-17T01:30:09.417Z,8.00
2018-04-17T01:31:09.399Z,8.00
2018-04-17T01:32:09.390Z,8.00
2018-04-17T01:33:09.363Z,8.00
2018-04-17T01:34:09.353Z,8.00
2018-04-17T01:35:09.328Z,8.00
2018-04-17T01:36:09.379Z,8.00
2018-04-17T01:37:09.292Z,8.00
2018-04-17T01:38:09.274Z,8.00
2018-04-17T01:39:09.267Z,8.00
2018-04-17T01:40:09.237Z,8.00
2018-04-17T01:41:09.218Z,8.00
2018-04-17T01:42:09.204Z,8.00
2018-04-17T01:43:09.183Z,8.00
2018-04-17T01:44:09.168Z,8.00
2018-04-17T01:45:09.147Z,8.00
2018-04-17T01:46:09.130Z,8.00
2018-04-17T01:47:09.112Z,8.00
2018-04-17T01:48:09.098Z,8.00
2018-04-17T01:49:09.077Z,8.00
2018-04-17T01:50:09.061Z,8.00
2018-04-17T01:51:09.043Z,8.00
2018-04-17T01:52:09.022Z,8.00
2018-04-17T01:53:09.009Z,8.00
2018-04-17T01:54:08.989Z,8.00
2018-04-17T01:55:08.971Z,8.00
2018-04-17T01:56:08.967Z,8.00
2018-04-17T01:57:08.945Z,8.00
2018-04-17T01:58:08.918Z,8.00
2018-04-17T01:59:08.898Z,8.00
2018-04-17T02:00:08.881Z,8.00
2018-04-17T02:01:08.867Z,8.00
2018-04-17T02:02:08.850Z,8.00
2018-04-17T02:03:08.951Z,8.00
2018-04-17T02:04:08.809Z,8.00
2018-04-17T02:05:08.792Z,8.00
2018-04-17T02:06:08.886Z,8.00
2018-04-17T02:07:08.760Z,8.00
2018-04-17T02:08:08.749Z,8.00
2018-04-17T02:09:08.724Z,8.00
2018-04-17T02:10:08.701Z,8.00
2018-04-17T02:11:08.687Z,8.00
2018-04-17T02:12:08.668Z,8.00
2018-04-17T02:13:08.652Z,8.00
2018-04-17T02:14:08.629Z,8.00
2018-04-17T02:15:08.612Z,8.00
2018-04-17T02:16:08.593Z,8.00
2018-04-17T02:17:08.578Z,8.00
2018-04-17T02:18:08.568Z,8.00
2018-04-17T02:19:08.544Z,8.00
2018-04-17T02:20:08.520Z,8.00
2018-04-17T02:21:08.502Z,8.00
2018-04-17T02:22:08.637Z,8.00
2018-04-17T02:23:08.468Z,8.00
2018-04-17T02:24:08.451Z,8.00
2018-04-17T02:25:08.482Z,8.00
2018-04-17T02:26:08.411Z,8.00
2018-04-17T02:27:08.393Z,8.00
2018-04-17T02:28:08.393Z,8.00
2018-04-17T02:29:08.375Z,8.00
2018-04-17T02:30:08.339Z,8.00
2018-04-17T02:31:08.320Z,8.00
2018-04-17T02:32:08.312Z,8.00
2018-04-17T02:33:08.283Z,8.00
2018-04-17T02:34:08.266Z,8.00
2018-04-17T02:35:08.249Z,8.00
2018-04-17T02:36:08.229Z,8.00
2018-04-17T02:37:08.211Z,8.00
2018-04-17T02:38:08.272Z,8.00
2018-04-17T02:39:08.177Z,8.00
2018-04-17T02:40:08.159Z,8.00
2018-04-17T02:41:08.141Z,8.00
2018-04-17T02:42:08.120Z,8.00
2018-04-17T02:43:08.101Z,8.00
2018-04-17T02:44:08.085Z,8.00
2018-04-17T02:45:08.065Z,8.00
2018-04-17T02:46:08.064Z,8.00
2018-04-17T02:47:08.031Z,8.00
2018-04-17T02:48:08.019Z,8.00
2018-04-17T02:49:07.994Z,8.00
2018-04-17T02:50:07.974Z,8.00
2018-04-17T02:51:07.954Z,8.00
2018-04-17T02:52:07.937Z,8.00
2018-04-17T02:53:07.915Z,8.00
2018-04-17T02:54:07.899Z,8.00
2018-04-17T02:55:07.883Z,8.00
2018-04-17T02:56:07.863Z,8.00
2018-04-17T02:57:07.843Z,8.00
2018-04-17T02:58:07.824Z,8.00
2018-04-17T02:59:07.807Z,8.00
2018-04-17T03:00:07.788Z,8.00
2018-04-17T03:01:07.772Z,8.00
2018-04-17T03:02:07.751Z,8.00
2018-04-17T03:03:07.734Z,8.00
2018-04-17T03:04:07.713Z,8.00
2018-04-17T03:05:07.716Z,8.00
2018-04-17T03:06:07.680Z,8.00
2018-04-17T03:07:07.671Z,8.00
2018-04-17T03:08:07.642Z,8.00
2018-04-17T03:09:07.629Z,8.00
2018-04-17T03:10:07.606Z,8.00
2018-04-17T03:11:07.585Z,8.00
2018-04-17T03:12:07.573Z,8.00
2018-04-17T03:13:07.546Z,8.00
2018-04-17T03:14:07.529Z,8.00
2018-04-17T03:15:07.511Z,8.00
2018-04-17T03:16:07.492Z,8.00
2018-04-17T03:17:07.476Z,8.00
2018-04-17T03:18:07.454Z,8.00
2018-04-17T03:19:07.441Z,8.00
2018-04-17T03:20:07.428Z,8.00
2018-04-17T03:21:07.559Z,8.00
2018-04-17T03:22:07.382Z,8.00
2018-04-17T03:23:07.362Z,8.00
2018-04-17T03:24:07.352Z,8.00
2018-04-17T03:25:07.324Z,8.00
2018-04-17T03:26:07.309Z,8.00
2018-04-17T03:27:07.289Z,8.00
2018-04-17T03:28:07.271Z,8.00
2018-04-17T03:29:07.253Z,8.00
2018-04-17T03:30:07.245Z,8.00
2018-04-17T03:31:07.213Z,8.00
2018-04-17T03:32:07.201Z,8.00
2018-04-17T03:33:07.177Z,8.00
2018-04-17T03:34:07.166Z,8.00
2018-04-17T03:35:07.140Z,8.00
2018-04-17T03:36:07.127Z,8.00
2018-04-17T03:37:07.146Z,8.00
2018-04-17T03:38:07.086Z,8.00
2018-04-17T03:40:03.526Z,8.00
2018-04-17T03:41:00.678Z,8.00
2018-04-17T03:42:00.663Z,12.00
2018-04-17T03:43:00.641Z,12.00
2018-04-17T03:44:00.625Z,12.00
2018-04-17T03:45:00.605Z,12.00
2018-04-17T03:46:00.588Z,12.00
2018-04-17T03:47:00.565Z,8.00
2018-04-17T03:48:00.543Z,8.00
2018-04-17T03:49:00.527Z,8.00
2018-04-17T03:50:00.507Z,8.00
2018-04-17T03:51:00.488Z,8.00
2018-04-17T03:52:00.473Z,8.00
2018-04-17T03:53:00.454Z,8.00
2018-04-17T03:54:00.443Z,12.00
2018-04-17T03:55:00.433Z,12.00
2018-04-17T03:56:00.393Z,12.00
2018-04-17T03:57:00.377Z,8.00
2018-04-17T03:58:00.358Z,12.00
2018-04-17T03:59:00.335Z,12.00
2018-04-17T04:00:00.334Z,12.00
2018-04-17T04:01:00.297Z,16.00
2018-04-17T04:02:00.294Z,12.00
2018-04-17T04:03:00.269Z,16.00
2018-04-17T04:04:00.242Z,16.00
2018-04-17T04:05:00.223Z,20.00
2018-04-17T04:06:00.207Z,20.00
2018-04-17T04:07:00.185Z,24.00
2018-04-17T04:08:00.166Z,24.00
2018-04-17T04:09:00.147Z,28.00
2018-04-17T04:10:00.140Z,36.00
2018-04-17T04:11:00.112Z,28.00
2018-04-17T04:12:00.091Z,32.00
2018-04-17T04:13:00.088Z,40.00
2018-04-17T04:14:00.055Z,48.00
2018-04-17T04:15:00.046Z,52.00
2018-04-17T04:16:00.016Z,60.00
2018-04-17T04:16:59.996Z,72.00
2018-04-17T04:17:59.980Z,84.00
2018-04-17T04:19:00.033Z,92.00
2018-04-17T04:19:59.953Z,104.00
2018-04-17T04:20:59.920Z,116.00
2018-04-17T04:21:59.903Z,132.00
2018-04-17T04:22:59.881Z,148.00
2018-04-17T04:23:59.891Z,160.00
2018-04-17T04:24:59.844Z,180.00
2018-04-17T04:25:59.829Z,200.00
2018-04-17T04:26:59.809Z,220.00
2018-04-17T04:27:59.789Z,244.00
2018-04-17T04:28:59.777Z,268.00
2018-04-17T04:29:59.763Z,292.00
2018-04-17T04:30:59.735Z,316.00
2018-04-17T04:31:59.713Z,344.00
2018-04-17T04:32:59.693Z,376.00
2018-04-17T04:33:59.678Z,404.00
2018-04-17T04:34:59.658Z,436.00
2018-04-17T04:35:59.649Z,472.00
2018-04-17T04:36:59.618Z,508.00
2018-04-17T04:37:59.617Z,544.00
2018-04-17T04:38:59.579Z,584.00
2018-04-17T04:39:59.569Z,624.00
2018-04-17T04:40:59.555Z,664.00
2018-04-17T04:41:59.526Z,704.00
2018-04-17T04:42:59.508Z,752.00
2018-04-17T04:43:59.488Z,796.00
2018-04-17T04:44:59.472Z,840.00
2018-04-17T04:45:59.564Z,892.00
2018-04-17T04:46:59.441Z,948.00
2018-04-17T04:47:59.418Z,1000.00
2018-04-17T04:48:59.499Z,1064.00
2018-04-17T04:49:59.377Z,1120.00
2018-04-17T04:50:59.357Z,1184.00
2018-04-17T04:51:59.389Z,1248.00
2018-04-17T04:52:59.318Z,1316.00
2018-04-17T04:53:59.299Z,1380.00
2018-04-17T04:54:59.281Z,1448.00
2018-04-17T04:55:59.266Z,1520.00
2018-04-17T04:56:59.246Z,1588.00
2018-04-17T04:57:59.228Z,1656.00
2018-04-17T04:58:59.207Z,1732.00
2018-04-17T04:59:59.188Z,1804.00
2018-04-17T05:00:59.168Z,1884.00
2018-04-17T05:01:59.153Z,1960.00
2018-04-17T05:02:59.131Z,2044.00
2018-04-17T05:03:59.114Z,2124.00
2018-04-17T05:04:59.094Z,2208.00
2018-04-17T05:05:59.075Z,2292.00
2018-04-17T05:06:59.067Z,2380.00
2018-04-17T05:07:59.139Z,2468.00
2018-04-17T05:08:59.024Z,2556.00
2018-04-17T05:09:58.999Z,2632.00
2018-04-17T05:10:59.025Z,2708.00
2018-04-17T05:11:58.964Z,2808.00
2018-04-17T05:12:58.943Z,2916.00
2018-04-17T05:13:58.937Z,3016.00
2018-04-17T05:14:58.918Z,3112.00
2018-04-17T05:15:58.889Z,3200.00
2018-04-17T05:16:58.876Z,3296.00
2018-04-17T05:17:58.855Z,3396.00
2018-04-17T05:18:58.835Z,3492.00
2018-04-17T05:19:58.834Z,3604.00
2018-04-17T05:20:58.800Z,3724.00
2018-04-17T05:21:58.780Z,3836.00
2018-04-17T05:22:58.767Z,3952.00
2018-04-17T05:23:58.766Z,4068.00
2018-04-17T05:24:58.725Z,4176.00
2018-04-17T05:25:58.706Z,4280.00
2018-04-17T05:26:58.705Z,4384.00
2018-04-17T05:27:58.676Z,4512.00
2018-04-17T05:28:58.654Z,4636.00
2018-04-17T05:29:58.634Z,4760.00
2018-04-17T05:30:58.612Z,4888.00
2018-04-17T05:31:58.596Z,5016.00
2018-04-17T05:32:58.578Z,5140.00
2018-04-17T05:33:58.572Z,5276.00
2018-04-17T05:34:58.551Z,5404.00
2018-04-17T05:35:58.526Z,5536.00
2018-04-17T05:36:58.505Z,5664.00
2018-04-17T05:37:58.491Z,5804.00
2018-04-17T05:38:58.472Z,5960.00
2018-04-17T05:39:58.453Z,6116.00
2018-04-17T05:40:58.450Z,6312.00
2018-04-17T05:41:58.426Z,7816.00
2018-04-17T05:42:58.401Z,9948.00
2018-04-17T05:43:58.382Z,10856.00
2018-04-17T05:44:58.372Z,13856.00
2018-04-17T05:45:58.354Z,16672.00
2018-04-17T05:46:58.326Z,17088.00
2018-04-17T05:47:58.318Z,17152.00
2018-04-17T05:48:58.291Z,17760.00
2018-04-17T05:49:58.275Z,16992.00
2018-04-17T05:50:58.288Z,12888.00
2018-04-17T05:51:58.244Z,15136.00
2018-04-17T05:52:58.229Z,19040.00
2018-04-17T05:53:58.233Z,19584.00
2018-04-17T05:54:58.194Z,19424.00
2018-04-17T05:55:58.205Z,20288.00
2018-04-17T05:56:58.161Z,21408.00
2018-04-17T05:57:58.148Z,22016.00
2018-04-17T05:58:58.130Z,21408.00
2018-04-17T05:59:58.113Z,21088.00
2018-04-17T06:00:58.104Z,21472.00
2018-04-17T06:01:58.090Z,20608.00
2018-04-17T06:02:58.069Z,16928.00
2018-04-17T06:03:58.053Z,15968.00
2018-04-17T06:04:58.050Z,22304.00
2018-04-17T06:05:58.028Z,23904.00
2018-04-17T06:06:58.065Z,24448.00
2018-04-17T06:07:57.995Z,25728.00
2018-04-17T06:08:57.988Z,26656.00
2018-04-17T06:09:57.979Z,26816.00
2018-04-17T06:10:57.955Z,26720.00
2018-04-17T06:11:57.951Z,28032.00
2018-04-17T06:12:57.932Z,29312.00
2018-04-17T06:13:57.912Z,29824.00
2018-04-17T06:14:57.899Z,31424.00
2018-04-17T06:15:57.896Z,31168.00
2018-04-17T06:16:57.874Z,29248.00
2018-04-17T06:17:57.863Z,24992.00
2018-04-17T06:18:57.848Z,24032.00
2018-04-17T06:19:57.835Z,23904.00
2018-04-17T06:20:57.834Z,22304.00
2018-04-17T06:21:57.819Z,25568.00
2018-04-17T06:22:57.802Z,27424.00
2018-04-17T06:23:57.802Z,26560.00
2018-04-17T06:24:57.775Z,27040.00
2018-04-17T06:25:57.776Z,34496.00
2018-04-17T06:26:57.751Z,35744.00
2018-04-17T06:27:57.739Z,36320.00
2018-04-17T06:28:57.728Z,36160.00
2018-04-17T06:29:57.721Z,35520.00
2018-04-17T06:30:57.707Z,35264.00
2018-04-17T06:31:57.697Z,37376.00
2018-04-17T06:32:57.682Z,37792.00
2018-04-17T06:33:57.711Z,38016.00
2018-04-17T06:34:57.696Z,27392.00
2018-04-17T06:35:57.649Z,18272.00
2018-04-17T06:36:57.639Z,17440.00
2018-04-17T06:37:57.635Z,25376.00
2018-04-17T06:38:57.620Z,26240.00
2018-04-17T06:39:57.606Z,14036.00
2018-04-17T06:40:57.596Z,19360.00
2018-04-17T06:41:57.606Z,21376.00
2018-04-17T06:42:57.574Z,28480.00
2018-04-17T06:43:57.565Z,26048.00
2018-04-17T06:44:57.554Z,34880.00
2018-04-17T06:45:57.541Z,27520.00
2018-04-17T06:46:57.547Z,16132.00
2018-04-17T06:47:57.516Z,15272.00
2018-04-17T06:48:57.506Z,13908.00
2018-04-17T06:49:57.505Z,13932.00
2018-04-17T06:50:57.488Z,11404.00
2018-04-17T06:51:57.474Z,10704.00
2018-04-17T06:52:57.468Z,10608.00
2018-04-17T06:53:57.453Z,10568.00
2018-04-17T06:54:57.439Z,10532.00
2018-04-17T06:55:57.426Z,10544.00
2018-04-17T06:56:57.414Z,10556.00
2018-04-17T06:57:57.426Z,10572.00
2018-04-17T06:58:57.392Z,10580.00
2018-04-17T06:59:57.383Z,10584.00
2018-04-17T07:00:57.366Z,10668.00
2018-04-17T07:01:57.354Z,10848.00
2018-04-17T07:02:57.479Z,11044.00
2018-04-17T07:03:57.331Z,12368.00
2018-04-17T07:04:57.316Z,20896.00
2018-04-17T07:05:57.312Z,26560.00
2018-04-17T07:06:57.286Z,18880.00
2018-04-17T07:07:57.282Z,14168.00
2018-04-17T07:08:57.271Z,18400.00
2018-04-17T07:09:57.252Z,30944.00
2018-04-17T07:10:57.245Z,41536.00
2018-04-17T07:11:57.224Z,41536.00
2018-04-17T07:12:57.220Z,27328.00
2018-04-17T07:13:57.198Z,23456.00
2018-04-17T07:14:57.185Z,16664.00
2018-04-17T07:15:57.177Z,20224.00
2018-04-17T07:16:57.198Z,35680.00
2018-04-17T07:17:57.154Z,35840.00
2018-04-17T07:18:57.151Z,41536.00
2018-04-17T07:19:57.124Z,45248.00
2018-04-17T07:20:57.116Z,27456.00
2018-04-17T07:21:57.105Z,20928.00
2018-04-17T07:22:57.086Z,25152.00
2018-04-17T07:23:57.073Z,25504.00
2018-04-17T07:24:57.061Z,27520.00
2018-04-17T07:25:57.046Z,29760.00
2018-04-17T07:26:57.094Z,42528.00
2018-04-17T07:27:57.025Z,34176.00
2018-04-17T07:28:57.015Z,27680.00
2018-04-17T07:29:59.683Z,27744.00
2018-04-17T07:31:42.477Z,37568.00
2018-04-17T07:32:42.335Z,42176.00
2018-04-17T07:33:42.318Z,31808.00
2018-04-17T07:34:42.323Z,19744.00
2018-04-17T07:35:42.289Z,31616.00
2018-04-17T07:36:42.280Z,31264.00
2018-04-17T07:37:42.274Z,20160.00
2018-04-17T07:38:42.260Z,19072.00
2018-04-17T07:39:42.250Z,19808.00
2018-04-17T07:40:42.250Z,20736.00
2018-04-17T07:41:42.229Z,21280.00
2018-04-17T07:42:42.227Z,20096.00
2018-04-17T07:43:42.208Z,40256.00
2018-04-17T07:44:42.205Z,42336.00
2018-04-17T07:45:42.192Z,47200.00
2018-04-17T07:46:42.197Z,44864.00
2018-04-17T07:47:42.179Z,45248.00
2018-04-17T07:48:42.159Z,48480.00
2018-04-17T07:49:42.148Z,54848.00
2018-04-17T07:50:42.150Z,42432.00
2018-04-17T07:51:42.145Z,37024.00
2018-04-17T07:52:42.120Z,49472.00
2018-04-17T07:53:42.113Z,20448.00
2018-04-17T07:54:42.111Z,30432.00
2018-04-17T07:55:42.153Z,22368.00
2018-04-17T07:56:42.087Z,31360.00
2018-04-17T07:57:42.091Z,40736.00
2018-04-17T07:58:42.124Z,39168.00
2018-04-17T07:59:42.058Z,26976.00
2018-04-17T08:00:42.057Z,30528.00
2018-04-17T08:01:42.040Z,24320.00
2018-04-17T08:02:42.037Z,27040.00
2018-04-17T08:03:42.025Z,28288.00
2018-04-17T08:04:42.022Z,22336.00
2018-04-17T08:05:42.009Z,24320.00
2018-04-17T08:06:41.998Z,26048.00
2018-04-17T08:07:41.988Z,23840.00
2018-04-17T08:08:41.981Z,23712.00
2018-04-17T08:09:41.980Z,34656.00
2018-04-17T08:10:41.972Z,30432.00
2018-04-17T08:11:42.022Z,17440.00
2018-04-17T08:12:41.957Z,52416.00
2018-04-17T08:13:41.937Z,56736.00
2018-04-17T08:14:41.928Z,60576.00
2018-04-17T08:15:41.921Z,57472.00
2018-04-17T08:16:41.919Z,33056.00
2018-04-17T08:17:41.904Z,27776.00
2018-04-17T08:18:41.894Z,16772.00
2018-04-17T08:19:41.890Z,15648.00
2018-04-17T08:20:41.878Z,27488.00
2018-04-17T08:21:41.970Z,51808.00
2018-04-17T08:22:41.873Z,38496.00
2018-04-17T08:23:41.864Z,32448.00
2018-04-17T08:24:41.915Z,22944.00
2018-04-17T08:25:41.838Z,46784.00
2018-04-17T08:26:41.834Z,42112.00
2018-04-17T08:27:41.837Z,40544.00
2018-04-17T08:28:41.818Z,17236.00
2018-04-17T08:29:41.815Z,17308.00
2018-04-17T08:30:41.798Z,15124.00
2018-04-17T08:31:41.793Z,16496.00
2018-04-17T08:32:41.792Z,14044.00
2018-04-17T08:33:41.778Z,29792.00
2018-04-17T08:34:41.776Z,27648.00
2018-04-17T08:35:41.762Z,23648.00
2018-04-17T08:36:41.753Z,29056.00
2018-04-17T08:37:41.746Z,14424.00
2018-04-17T08:38:41.743Z,15512.00
2018-04-17T08:39:41.724Z,19776.00
2018-04-17T08:40:41.718Z,30848.00
2018-04-17T08:41:41.711Z,43424.00
2018-04-17T08:42:41.711Z,35520.00
2018-04-17T08:43:41.697Z,22912.00
2018-04-17T08:44:41.692Z,23296.00
2018-04-17T08:45:41.676Z,18156.00
2018-04-17T08:46:41.667Z,17696.00
2018-04-17T08:47:41.662Z,15472.00
2018-04-17T08:48:41.651Z,17116.00
2018-04-17T08:49:41.644Z,19328.00
2018-04-17T08:50:41.652Z,45536.00
2018-04-17T08:51:41.626Z,20960.00
2018-04-17T08:52:41.620Z,20928.00
2018-04-17T08:53:41.618Z,19456.00
2018-04-17T08:54:41.600Z,28608.00
2018-04-17T08:55:41.597Z,48224.00
2018-04-17T08:56:41.584Z,55168.00
2018-04-17T08:57:41.581Z,49696.00
2018-04-17T08:58:41.579Z,41344.00
2018-04-17T08:59:41.613Z,55616.00
2018-04-17T09:00:41.554Z,55104.00
2018-04-17T09:01:41.546Z,55616.00
2018-04-17T09:02:41.548Z,49472.00
2018-04-17T09:03:41.532Z,42336.00
2018-04-17T09:04:41.524Z,42656.00
2018-04-17T09:05:41.529Z,44000.00
2018-04-17T09:06:41.511Z,26112.00
2018-04-17T09:07:41.516Z,20416.00
2018-04-17T09:08:41.514Z,19488.00
2018-04-17T09:09:41.491Z,53568.00
2018-04-17T09:10:41.483Z,34336.00
2018-04-17T09:11:41.485Z,55808.00
2018-04-17T09:12:41.472Z,68544.00
2018-04-17T09:13:41.471Z,64736.00
2018-04-17T09:14:41.461Z,60320.00
2018-04-17T09:15:41.458Z,30368.00
2018-04-17T09:16:41.463Z,40768.00
2018-04-17T09:17:41.448Z,31936.00
2018-04-17T09:18:41.440Z,32384.00
2018-04-17T09:19:41.440Z,35520.00
2018-04-17T09:20:41.435Z,35488.00
2018-04-17T09:21:41.432Z,55072.00
2018-04-17T09:22:41.423Z,50176.00
2018-04-17T09:23:41.418Z,58560.00
2018-04-17T09:24:41.414Z,76928.00
2018-04-17T09:25:41.413Z,75552.00
2018-04-17T09:26:41.422Z,78240.00
2018-04-17T09:27:41.402Z,77152.00
2018-04-17T09:28:41.409Z,69536.00
2018-04-17T09:29:41.396Z,57184.00
2018-04-17T09:30:41.390Z,51776.00
2018-04-17T09:31:41.399Z,49120.00
2018-04-17T09:32:41.382Z,33568.00
2018-04-17T09:33:41.382Z,37024.00
2018-04-17T09:34:41.377Z,42656.00
2018-04-17T09:35:41.373Z,61408.00
2018-04-17T09:36:41.374Z,62816.00
2018-04-17T09:37:41.368Z,69504.00
2018-04-17T09:38:41.366Z,61312.00
2018-04-17T09:39:41.366Z,74560.00
2018-04-17T09:40:41.373Z,79072.00
2018-04-17T09:41:41.359Z,80992.00
2018-04-17T09:42:41.356Z,81600.00
2018-04-17T09:43:41.363Z,84736.00
2018-04-17T09:44:41.377Z,81344.00
2018-04-17T09:45:41.356Z,81376.00
2018-04-17T09:46:41.354Z,84576.00
2018-04-17T09:47:41.349Z,82080.00
2018-04-17T09:48:41.349Z,85888.00
2018-04-17T09:49:41.348Z,83936.00
2018-04-17T09:50:41.353Z,77760.00
2018-04-17T09:51:41.349Z,78080.00
2018-04-17T09:52:41.345Z,72576.00
2018-04-17T09:53:41.346Z,43296.00
2018-04-17T09:54:41.345Z,79232.00
2018-04-17T09:55:41.346Z,81440.00
2018-04-17T09:56:41.346Z,82528.00
2018-04-17T09:57:41.368Z,74240.00
2018-04-17T09:58:41.345Z,70400.00
2018-04-17T09:59:41.349Z,73408.00
2018-04-17T10:00:41.353Z,70528.00
2018-04-17T10:01:41.357Z,68288.00
2018-04-17T10:02:41.352Z,63840.00
2018-04-17T10:03:41.353Z,68736.00
2018-04-17T10:04:41.358Z,60320.00
2018-04-17T10:05:41.361Z,63936.00
2018-04-17T10:06:41.362Z,64768.00
2018-04-17T10:07:41.366Z,68032.00
2018-04-17T10:08:41.362Z,69152.00
2018-04-17T10:09:41.361Z,75584.00
2018-04-17T10:10:41.463Z,78688.00
2018-04-17T10:11:41.371Z,80608.00
2018-04-17T10:12:41.371Z,75840.00
2018-04-17T10:13:41.364Z,77056.00
2018-04-17T10:14:41.365Z,79424.00
2018-04-17T10:15:41.378Z,78976.00
2018-04-17T10:16:41.371Z,78176.00
2018-04-17T10:17:41.384Z,74912.00
2018-04-17T10:18:41.371Z,76160.00
2018-04-17T10:19:41.384Z,76352.00
2018-04-17T10:20:41.376Z,74112.00
2018-04-17T10:21:41.382Z,75904.00
2018-04-17T10:22:41.386Z,78624.00
2018-04-17T10:23:41.384Z,77440.00
2018-04-17T10:24:41.380Z,76544.00
2018-04-17T10:25:41.393Z,74016.00
2018-04-17T10:26:41.387Z,75200.00
2018-04-17T10:27:41.492Z,75328.00
2018-04-17T10:28:41.400Z,76192.00
2018-04-17T10:29:41.390Z,73312.00
2018-04-17T10:30:41.393Z,72608.00
2018-04-17T10:31:41.396Z,70080.00
2018-04-17T10:32:41.424Z,71808.00
2018-04-17T10:33:41.400Z,70656.00
2018-04-17T10:34:41.402Z,69856.00
2018-04-17T10:35:41.406Z,75904.00
2018-04-17T10:36:41.405Z,42304.00
2018-04-17T10:37:41.411Z,24416.00
2018-04-17T10:38:41.411Z,27648.00
2018-04-17T10:39:41.468Z,77504.00
2018-04-17T10:40:41.412Z,76416.00
2018-04-17T10:41:41.428Z,58720.00
2018-04-17T10:42:41.452Z,70976.00
2018-04-17T10:43:41.418Z,69792.00
2018-04-17T10:44:41.426Z,74080.00
2018-04-17T10:45:41.423Z,74752.00
2018-04-17T10:46:41.422Z,78912.00
2018-04-17T10:47:41.432Z,59936.00
2018-04-17T10:48:41.427Z,80768.00
2018-04-17T10:49:41.427Z,81216.00
2018-04-17T10:50:41.427Z,79296.00
2018-04-17T10:51:41.434Z,75104.00
2018-04-17T10:52:41.436Z,78912.00
2018-04-17T10:53:41.432Z,79104.00
2018-04-17T10:54:41.444Z,76832.00
2018-04-17T10:55:41.437Z,72384.00
2018-04-17T10:56:41.437Z,26208.00
2018-04-17T10:57:41.439Z,70176.00
2018-04-17T10:58:41.446Z,38336.00
2018-04-17T10:59:41.492Z,56096.00
2018-04-17T11:00:41.454Z,56640.00
2018-04-17T11:01:41.447Z,79744.00
2018-04-17T11:02:41.459Z,75008.00
2018-04-17T11:03:41.453Z,75360.00
2018-04-17T11:04:41.452Z,75072.00
2018-04-17T11:05:41.458Z,73536.00
2018-04-17T11:06:41.459Z,72224.00
2018-04-17T11:07:41.467Z,72960.00
2018-04-17T11:08:41.458Z,73760.00
2018-04-17T11:09:41.461Z,69088.00
2018-04-17T11:10:41.464Z,67232.00
2018-04-17T11:11:41.467Z,68544.00
2018-04-17T11:12:41.481Z,70784.00
2018-04-17T11:13:41.479Z,69504.00
2018-04-17T11:14:41.468Z,64992.00
2018-04-17T11:15:41.469Z,61824.00
2018-04-17T11:16:41.474Z,61632.00
2018-04-17T11:17:41.483Z,63008.00
2018-04-17T11:18:41.492Z,61088.00
2018-04-17T11:19:41.493Z,55136.00
2018-04-17T11:20:41.485Z,54048.00
2018-04-17T11:21:41.487Z,61632.00
2018-04-17T11:22:41.589Z,67744.00
2018-04-17T11:23:41.494Z,72320.00
2018-04-17T11:24:41.501Z,71168.00
2018-04-17T11:25:41.496Z,73248.00
2018-04-17T11:26:41.495Z,78720.00
2018-04-17T11:27:41.497Z,78880.00
2018-04-17T11:28:41.508Z,77824.00
2018-04-17T11:29:41.503Z,74912.00
2018-04-17T11:30:41.503Z,73408.00
2018-04-17T11:31:41.504Z,72992.00
2018-04-17T11:32:41.537Z,76032.00
2018-04-17T11:33:41.512Z,77856.00
2018-04-17T11:34:41.532Z,74816.00
2018-04-17T11:35:41.513Z,75712.00
2018-04-17T11:36:41.512Z,78048.00
2018-04-17T11:37:41.512Z,80640.00
2018-04-17T11:38:41.522Z,83328.00
2018-04-17T11:39:41.849Z,76960.00
2018-04-17T11:40:41.515Z,70432.00
2018-04-17T11:41:41.517Z,71136.00
2018-04-17T11:42:41.528Z,70048.00
2018-04-17T11:43:41.521Z,68032.00
2018-04-17T11:44:41.518Z,68416.00
2018-04-17T11:45:41.529Z,72096.00
2018-04-17T11:46:41.521Z,71648.00
2018-04-17T11:47:41.521Z,71136.00
2018-04-17T11:48:41.565Z,71840.00
2018-04-17T11:49:41.521Z,69376.00
2018-04-17T11:50:41.522Z,68128.00
2018-04-17T11:51:41.520Z,72000.00
2018-04-17T11:52:41.532Z,61472.00
2018-04-17T11:53:41.522Z,28896.00
2018-04-17T11:54:41.516Z,16908.00
2018-04-17T11:55:41.566Z,16008.00
2018-04-17T11:56:41.541Z,15212.00
2018-04-17T11:57:41.514Z,14496.00
2018-04-17T11:58:41.521Z,13804.00
2018-04-17T11:59:41.508Z,13240.00
2018-04-17T12:00:41.510Z,12672.00
2018-04-17T12:01:41.504Z,12212.00
2018-04-17T12:02:41.502Z,11812.00
2018-04-17T12:03:41.501Z,11576.00
2018-04-17T12:04:41.503Z,11480.00
2018-04-17T12:05:41.498Z,11452.00
2018-04-17T12:06:41.490Z,11340.00
2018-04-17T12:07:41.492Z,11128.00
2018-04-17T12:08:41.489Z,11004.00
2018-04-17T12:09:41.481Z,10896.00
2018-04-17T12:10:41.479Z,10724.00
2018-04-17T12:11:41.478Z,10456.00
2018-04-17T12:12:41.470Z,10196.00
2018-04-17T12:13:41.567Z,10156.00
2018-04-17T12:14:41.483Z,10140.00
2018-04-17T12:15:41.450Z,10076.00
2018-04-17T12:16:41.457Z,9944.00
2018-04-17T12:17:41.439Z,9816.00
2018-04-17T12:18:41.432Z,9724.00